Estherville, Iowa
Current Conditions -  °F | °C
As of 11:52 AM on Friday 21 Nov 2014 (Local Time) from KEST Reporting Station
Clear Clear  
Wind Chill:   Ceiling: Unl
Heat Index: 24°   Visibility: 10mi
Dew Point: 18°   Wind: 24mph
Humidity: 77%   Direction: 170°S
Pressure: 30.09"   Gusts: 31mph
Location:  43.4°N, 94.84°W
Report Text: KEST 211752Z AUTO 17021G27KT 10SM CLR M04/M08 A3009 RMK AO2 PK WND 18028/1737 SLP216 I6000 T10441078 11044 21144 58019
Loading
Personal Weather Stations






























Interactive Weather Map New forecast layout! Learn more

10-Day Weather Forecast

Advertisements
Track Severe Weather on mobile